createdAt,value
2019-03-24T00:00:24.628Z,94.84
2019-03-24T00:01:24.660Z,95.22
2019-03-24T00:02:24.691Z,94.84
2019-03-24T00:03:24.735Z,95.41
2019-03-24T00:04:24.772Z,95.41
2019-03-24T00:05:24.809Z,95.03
2019-03-24T00:06:24.850Z,95.12
2019-03-24T00:07:24.887Z,95.03
2019-03-24T00:08:24.920Z,94.84
2019-03-24T00:09:24.966Z,94.84
2019-03-24T00:10:24.988Z,95.22
2019-03-24T00:11:25.026Z,95.22
2019-03-24T00:12:25.063Z,95.12
2019-03-24T00:13:25.117Z,95.22
2019-03-24T00:14:25.141Z,94.93
2019-03-24T00:15:26.569Z,95.03
2019-03-24T00:16:25.214Z,95.03
2019-03-24T00:17:25.255Z,95.03
2019-03-24T00:18:25.287Z,95.03
2019-03-24T00:19:25.327Z,95.41
2019-03-24T00:20:25.369Z,95.50
2019-03-24T00:21:25.399Z,95.12
2019-03-24T00:22:25.438Z,94.84
2019-03-24T00:23:25.474Z,94.93
2019-03-24T00:24:25.511Z,94.93
2019-03-24T00:25:25.552Z,95.41
2019-03-24T00:26:25.594Z,95.41
2019-03-24T00:27:25.621Z,95.22
2019-03-24T00:28:25.657Z,95.22
2019-03-24T00:29:25.698Z,95.60
2019-03-24T00:30:25.732Z,95.69
2019-03-24T00:31:25.769Z,95.79
2019-03-24T00:32:25.805Z,95.31
2019-03-24T00:33:25.851Z,95.41
2019-03-24T00:34:25.884Z,95.22
2019-03-24T00:35:25.922Z,96.08
2019-03-24T00:36:25.962Z,95.79
2019-03-24T00:37:26.002Z,96.17
2019-03-24T00:38:26.040Z,95.41
2019-03-24T00:39:26.068Z,95.41
2019-03-24T00:40:26.108Z,95.22
2019-03-24T00:41:26.141Z,95.88
2019-03-24T00:42:26.177Z,95.41
2019-03-24T00:43:26.235Z,96.08
2019-03-24T00:44:26.257Z,95.41
2019-03-24T00:45:36.236Z,95.31
2019-03-24T00:46:26.325Z,95.41
2019-03-24T00:47:26.363Z,95.31
2019-03-24T00:48:26.412Z,95.41
2019-03-24T00:49:26.446Z,95.31
2019-03-24T00:50:26.493Z,95.50
2019-03-24T00:51:26.526Z,95.88
2019-03-24T00:52:26.551Z,95.03
2019-03-24T00:53:26.587Z,95.41
2019-03-24T00:54:26.627Z,95.88
2019-03-24T00:55:26.660Z,95.12
2019-03-24T00:56:26.707Z,95.31
2019-03-24T00:57:26.735Z,95.41
2019-03-24T00:58:26.782Z,95.60
2019-03-24T00:59:26.815Z,95.60
2019-03-24T01:00:26.847Z,95.60
2019-03-24T01:01:26.884Z,95.12
2019-03-24T01:02:26.975Z,95.03
2019-03-24T01:03:26.961Z,95.50
2019-03-24T01:04:26.995Z,95.41
2019-03-24T01:05:27.033Z,94.84
2019-03-24T01:06:27.070Z,94.84
2019-03-24T01:07:27.118Z,95.03
2019-03-24T01:08:27.156Z,95.12
2019-03-24T01:09:27.210Z,94.93
2019-03-24T01:10:27.220Z,95.41
2019-03-24T01:11:27.259Z,95.27
2019-03-24T01:12:27.297Z,95.46
2019-03-24T01:13:27.338Z,95.55
2019-03-24T01:14:27.369Z,95.84
2019-03-24T01:15:27.436Z,95.65
2019-03-24T01:16:27.450Z,96.12
2019-03-24T01:17:27.490Z,96.03
2019-03-24T01:18:27.525Z,95.84
2019-03-24T01:19:27.555Z,96.03
2019-03-24T01:20:27.595Z,96.12
2019-03-24T01:21:27.729Z,96.22
2019-03-24T01:22:27.667Z,96.12
2019-03-24T01:23:27.705Z,95.93
2019-03-24T01:24:27.745Z,95.93
2019-03-24T01:25:27.786Z,96.12
2019-03-24T01:26:27.821Z,96.31
2019-03-24T01:27:27.856Z,96.22
2019-03-24T01:28:27.894Z,96.12
2019-03-24T01:29:27.938Z,96.59
2019-03-24T01:30:27.966Z,96.31
2019-03-24T01:31:28.004Z,96.59
2019-03-24T01:32:28.042Z,96.59
2019-03-24T01:33:28.081Z,96.50
2019-03-24T01:34:28.116Z,96.59
2019-03-24T01:35:28.156Z,96.78
2019-03-24T01:36:28.201Z,96.59
2019-03-24T01:37:28.229Z,96.31
2019-03-24T01:38:28.267Z,96.78
2019-03-24T01:39:28.304Z,96.31
2019-03-24T01:40:28.342Z,96.22
2019-03-24T01:41:28.381Z,96.31
2019-03-24T01:42:28.417Z,96.41
2019-03-24T01:43:28.455Z,96.31
2019-03-24T01:44:28.496Z,96.59
2019-03-24T01:45:28.532Z,96.41
2019-03-24T01:46:28.574Z,96.59
2019-03-24T01:47:28.605Z,96.31
2019-03-24T01:48:28.644Z,96.41
2019-03-24T01:49:28.680Z,96.41
2019-03-24T01:50:28.718Z,96.12
2019-03-24T01:51:28.759Z,96.31
2019-03-24T01:52:28.798Z,96.31
2019-03-24T01:53:28.834Z,96.31
2019-03-24T01:54:28.871Z,96.12
2019-03-24T01:55:28.908Z,96.12
2019-03-24T01:56:28.944Z,96.31
2019-03-24T01:57:28.982Z,96.36
2019-03-24T01:58:29.024Z,96.45
2019-03-24T01:59:29.155Z,96.41
2019-03-24T02:00:29.098Z,96.31
2019-03-24T02:01:29.133Z,96.22
2019-03-24T02:02:29.172Z,96.17
2019-03-24T02:03:29.207Z,96.22
2019-03-24T02:04:29.244Z,96.55
2019-03-24T02:05:29.282Z,96.50
2019-03-24T02:06:29.319Z,96.64
2019-03-24T02:07:29.357Z,96.64
2019-03-24T02:08:29.395Z,96.64
2019-03-24T02:09:29.438Z,96.55
2019-03-24T02:10:29.469Z,97.02
2019-03-24T02:11:29.507Z,97.22
2019-03-24T02:12:29.545Z,97.02
2019-03-24T02:13:29.583Z,97.22
2019-03-24T02:14:29.620Z,96.64
2019-03-24T02:15:29.660Z,96.36
2019-03-24T02:16:29.697Z,96.31
2019-03-24T02:17:29.743Z,96.36
2019-03-24T02:18:29.770Z,96.64
2019-03-24T02:19:29.813Z,96.64
2019-03-24T02:20:29.856Z,96.45
2019-03-24T02:21:29.886Z,97.12
2019-03-24T02:22:29.931Z,96.64
2019-03-24T02:23:29.971Z,96.45
2019-03-24T02:24:29.998Z,96.36
2019-03-24T02:25:30.047Z,96.55
2019-03-24T02:26:30.087Z,97.02
2019-03-24T02:27:30.113Z,96.74
2019-03-24T02:28:30.157Z,97.02
2019-03-24T02:29:30.195Z,96.83
2019-03-24T02:30:30.277Z,97.02
2019-03-24T02:31:30.270Z,96.74
2019-03-24T02:32:30.303Z,97.22
2019-03-24T02:33:30.339Z,96.74
2019-03-24T02:34:30.376Z,96.74
2019-03-24T02:35:30.443Z,96.93
2019-03-24T02:36:30.451Z,97.12
2019-03-24T02:37:30.488Z,97.22
2019-03-24T02:38:30.525Z,97.12
2019-03-24T02:39:30.563Z,96.83
2019-03-24T02:40:30.608Z,97.41
2019-03-24T02:41:30.648Z,96.64
2019-03-24T02:42:30.685Z,96.55
2019-03-24T02:43:30.715Z,96.26
2019-03-24T02:44:30.756Z,96.55
2019-03-24T02:45:30.793Z,96.64
2019-03-24T02:46:30.843Z,97.02
2019-03-24T02:47:30.872Z,96.36
2019-03-24T02:48:30.903Z,96.64
2019-03-24T02:49:30.944Z,96.55
2019-03-24T02:50:30.986Z,96.45
2019-03-24T02:51:31.024Z,96.64
2019-03-24T02:52:31.058Z,96.64
2019-03-24T02:53:31.099Z,96.64
2019-03-24T02:54:31.133Z,96.55
2019-03-24T02:55:31.169Z,96.36
2019-03-24T02:56:31.208Z,96.45
2019-03-24T02:57:31.246Z,96.45
2019-03-24T02:58:31.282Z,96.74
2019-03-24T02:59:31.334Z,96.55
2019-03-24T03:00:31.360Z,96.64
2019-03-24T03:01:31.397Z,96.36
2019-03-24T03:02:31.432Z,96.45
2019-03-24T03:03:31.470Z,96.83
2019-03-24T03:04:31.509Z,96.64
2019-03-24T03:05:31.546Z,96.55
2019-03-24T03:06:31.583Z,96.45
2019-03-24T03:07:31.620Z,96.36
2019-03-24T03:08:31.658Z,96.55
2019-03-24T03:09:31.703Z,96.64
2019-03-24T03:10:31.733Z,96.55
2019-03-24T03:11:31.772Z,96.55
2019-03-24T03:12:31.821Z,97.22
2019-03-24T03:13:31.849Z,97.22
2019-03-24T03:14:31.900Z,97.02
2019-03-24T03:15:31.925Z,97.02
2019-03-24T03:16:38.253Z,97.12
2019-03-24T03:17:31.999Z,96.74
2019-03-24T03:18:32.041Z,96.93
2019-03-24T03:19:32.076Z,96.83
2019-03-24T03:20:32.113Z,97.02
2019-03-24T03:21:32.155Z,96.74
2019-03-24T03:22:32.189Z,97.22
2019-03-24T03:23:32.234Z,97.02
2019-03-24T03:24:32.265Z,96.93
2019-03-24T03:25:32.316Z,97.02
2019-03-24T03:26:32.342Z,96.64
2019-03-24T03:27:32.378Z,96.55
2019-03-24T03:28:32.416Z,97.31
2019-03-24T03:29:32.454Z,96.74
2019-03-24T03:30:32.497Z,97.02
2019-03-24T03:31:32.531Z,97.22
2019-03-24T03:32:32.577Z,96.74
2019-03-24T03:33:32.637Z,97.22
2019-03-24T03:34:32.663Z,97.02
2019-03-24T03:35:32.683Z,97.02
2019-03-24T03:36:32.721Z,97.02
2019-03-24T03:37:32.783Z,96.83
2019-03-24T03:38:32.800Z,96.93
2019-03-24T03:39:32.837Z,96.55
2019-03-24T03:40:32.872Z,96.74
2019-03-24T03:41:32.916Z,96.64
2019-03-24T03:42:32.964Z,97.02
2019-03-24T03:43:32.985Z,97.22
2019-03-24T03:44:33.021Z,97.31
2019-03-24T03:45:33.073Z,96.64
2019-03-24T03:46:33.101Z,96.55
2019-03-24T03:47:33.135Z,97.02
2019-03-24T03:48:33.175Z,97.02
2019-03-24T03:49:33.218Z,96.36
2019-03-24T03:50:33.251Z,96.55
2019-03-24T03:51:33.289Z,96.45
2019-03-24T03:52:33.331Z,96.45
2019-03-24T03:53:33.417Z,96.64
2019-03-24T03:54:33.405Z,97.07
2019-03-24T03:55:33.439Z,97.17
2019-03-24T03:56:33.477Z,97.07
2019-03-24T03:57:33.526Z,96.79
2019-03-24T03:58:33.553Z,96.79
2019-03-24T03:59:33.592Z,97.07
2019-03-24T04:00:33.631Z,97.27
2019-03-24T04:01:33.671Z,97.07
2019-03-24T04:02:33.709Z,96.79
2019-03-24T04:03:33.754Z,96.98
2019-03-24T04:04:33.781Z,97.27
2019-03-24T04:05:33.820Z,97.07
2019-03-24T04:06:33.874Z,97.27
2019-03-24T04:07:33.897Z,97.17
2019-03-24T04:08:33.933Z,97.07
2019-03-24T04:09:33.983Z,96.88
2019-03-24T04:10:34.015Z,96.88
2019-03-24T04:11:34.047Z,97.07
2019-03-24T04:12:34.088Z,97.07
2019-03-24T04:13:34.124Z,96.79
2019-03-24T04:14:34.181Z,96.88
2019-03-24T04:15:34.238Z,96.88
2019-03-24T04:16:34.249Z,96.88
2019-03-24T04:17:34.296Z,96.79
2019-03-24T04:18:34.320Z,96.79
2019-03-24T04:19:34.352Z,96.98
2019-03-24T04:20:34.390Z,97.17
2019-03-24T04:21:34.432Z,97.17
2019-03-24T04:22:34.488Z,97.07
2019-03-24T04:23:34.502Z,96.98
2019-03-24T04:24:34.546Z,97.17
2019-03-24T04:25:34.582Z,97.17
2019-03-24T04:26:34.632Z,97.27
2019-03-24T04:27:34.657Z,97.36
2019-03-24T04:28:34.694Z,97.17
2019-03-24T04:29:34.749Z,96.88
2019-03-24T04:30:34.770Z,96.79
2019-03-24T04:31:34.819Z,97.45
2019-03-24T04:32:34.857Z,96.79
2019-03-24T04:33:34.934Z,97.07
2019-03-24T04:34:34.924Z,96.88
2019-03-24T04:35:34.962Z,96.88
2019-03-24T04:36:35.003Z,97.07
2019-03-24T04:37:35.041Z,97.22
2019-03-24T04:38:35.078Z,97.17
2019-03-24T04:39:35.116Z,97.07
2019-03-24T04:40:35.160Z,97.17
2019-03-24T04:41:35.201Z,97.17
2019-03-24T04:42:35.232Z,96.98
2019-03-24T04:43:35.268Z,97.45
2019-03-24T04:44:35.305Z,96.98
2019-03-24T04:45:35.357Z,97.22
2019-03-24T04:46:35.381Z,97.55
2019-03-24T04:47:35.422Z,96.98
2019-03-24T04:48:35.459Z,96.79
2019-03-24T04:49:35.496Z,96.98
2019-03-24T04:50:35.534Z,96.79
2019-03-24T04:51:35.574Z,96.98
2019-03-24T04:52:35.613Z,97.07
2019-03-24T04:53:35.652Z,97.31
2019-03-24T04:54:35.688Z,97.22
2019-03-24T04:55:35.735Z,96.93
2019-03-24T04:56:35.765Z,96.98
2019-03-24T04:57:35.805Z,96.93
2019-03-24T04:58:35.843Z,96.84
2019-03-24T04:59:35.890Z,96.93
2019-03-24T05:00:35.926Z,96.84
2019-03-24T05:01:35.957Z,97.03
2019-03-24T05:02:35.996Z,97.69
2019-03-24T05:03:36.037Z,97.12
2019-03-24T05:04:36.073Z,96.93
2019-03-24T05:05:36.113Z,97.22
2019-03-24T05:06:36.148Z,96.74
2019-03-24T05:07:36.196Z,97.22
2019-03-24T05:08:36.230Z,97.31
2019-03-24T05:09:36.264Z,97.22
2019-03-24T05:10:36.302Z,97.12
2019-03-24T05:11:36.349Z,97.22
2019-03-24T05:12:36.377Z,97.22
2019-03-24T05:13:36.417Z,97.12
2019-03-24T05:14:36.460Z,97.12
2019-03-24T05:15:36.493Z,96.84
2019-03-24T05:16:36.531Z,96.93
2019-03-24T05:17:36.571Z,97.31
2019-03-24T05:18:36.610Z,96.84
2019-03-24T05:19:36.655Z,97.22
2019-03-24T05:20:36.685Z,97.22
2019-03-24T05:21:36.729Z,97.12
2019-03-24T05:22:36.768Z,97.22
2019-03-24T05:23:36.803Z,97.31
2019-03-24T05:24:36.842Z,97.22
2019-03-24T05:25:36.878Z,97.27
2019-03-24T05:26:36.915Z,97.17
2019-03-24T05:27:36.955Z,97.12
2019-03-24T05:28:36.995Z,97.31
2019-03-24T05:29:37.033Z,97.31
2019-03-24T05:30:37.070Z,97.31
2019-03-24T05:31:37.110Z,97.08
2019-03-24T05:32:37.147Z,97.03
2019-03-24T05:33:37.187Z,97.08
2019-03-24T05:34:37.225Z,97.08
2019-03-24T05:35:37.273Z,97.17
2019-03-24T05:36:37.303Z,97.27
2019-03-24T05:37:37.340Z,97.22
2019-03-24T05:38:37.389Z,97.12
2019-03-24T05:39:37.432Z,97.08
2019-03-24T05:40:37.463Z,97.45
2019-03-24T05:41:37.497Z,97.36
2019-03-24T05:42:37.534Z,97.17
2019-03-24T05:43:37.571Z,97.36
2019-03-24T05:44:37.611Z,97.17
2019-03-24T05:45:37.650Z,97.27
2019-03-24T05:46:37.688Z,97.17
2019-03-24T05:47:37.738Z,97.08
2019-03-24T05:48:37.766Z,97.08
2019-03-24T05:49:37.804Z,97.17
2019-03-24T05:50:37.842Z,97.08
2019-03-24T05:51:37.887Z,96.98
2019-03-24T05:52:37.922Z,97.08
2019-03-24T05:53:38.118Z,97.17
2019-03-24T05:54:37.998Z,96.98
2019-03-24T05:55:38.038Z,97.17
2019-03-24T05:56:38.076Z,97.08
2019-03-24T05:57:38.117Z,97.08
2019-03-24T05:58:38.166Z,96.98
2019-03-24T05:59:38.192Z,97.64
2019-03-24T06:00:38.235Z,96.98
2019-03-24T06:01:38.272Z,97.08
2019-03-24T06:02:38.308Z,96.89
2019-03-24T06:03:38.349Z,97.17
2019-03-24T06:04:38.396Z,97.17
2019-03-24T06:05:38.430Z,97.08
2019-03-24T06:06:38.464Z,97.36
2019-03-24T06:07:38.503Z,97.27
2019-03-24T06:08:38.543Z,97.17
2019-03-24T06:09:38.582Z,96.98
2019-03-24T06:10:38.623Z,96.98
2019-03-24T06:11:38.665Z,97.08
2019-03-24T06:12:38.698Z,97.08
2019-03-24T06:13:38.736Z,97.27
2019-03-24T06:14:38.774Z,96.98
2019-03-24T06:15:38.814Z,97.08
2019-03-24T06:16:38.853Z,98.03
2019-03-24T06:17:47.421Z,97.08
2019-03-24T06:18:38.939Z,96.98
2019-03-24T06:19:38.970Z,97.08
2019-03-24T06:20:39.035Z,97.17
2019-03-24T06:21:39.047Z,97.13
2019-03-24T06:22:39.093Z,97.27
2019-03-24T06:23:39.127Z,97.41
2019-03-24T06:24:39.166Z,97.45
2019-03-24T06:25:39.205Z,97.45
2019-03-24T06:26:39.242Z,97.31
2019-03-24T06:27:39.282Z,97.03
2019-03-24T06:28:39.321Z,97.13
2019-03-24T06:29:39.360Z,97.98
2019-03-24T06:30:39.408Z,97.31
2019-03-24T06:31:39.438Z,97.31
2019-03-24T06:32:39.477Z,97.31
2019-03-24T06:33:39.517Z,97.22
2019-03-24T06:34:39.560Z,97.13
2019-03-24T06:35:39.593Z,97.31
2019-03-24T06:36:39.634Z,96.94
2019-03-24T06:37:39.673Z,97.60
2019-03-24T06:38:39.712Z,97.22
2019-03-24T06:39:39.750Z,97.13
2019-03-24T06:40:39.798Z,97.22
2019-03-24T06:41:39.829Z,97.03
2019-03-24T06:42:39.874Z,96.94
2019-03-24T06:43:39.907Z,97.03
2019-03-24T06:44:39.952Z,97.31
2019-03-24T06:45:39.986Z,97.13
2019-03-24T06:46:40.025Z,97.13
2019-03-24T06:47:40.076Z,96.94
2019-03-24T06:48:40.101Z,97.13
2019-03-24T06:49:40.142Z,96.94
2019-03-24T06:50:40.181Z,97.13
2019-03-24T06:51:40.227Z,96.94
2019-03-24T06:52:40.258Z,97.60
2019-03-24T06:53:40.300Z,97.13
2019-03-24T06:54:40.341Z,97.41
2019-03-24T06:55:40.376Z,97.03
2019-03-24T06:56:40.426Z,97.13
2019-03-24T06:57:40.608Z,97.41
2019-03-24T06:58:40.497Z,97.31
2019-03-24T06:59:40.549Z,97.65
2019-03-24T07:00:40.575Z,97.55
2019-03-24T07:01:40.614Z,97.27
2019-03-24T07:02:40.655Z,97.08
2019-03-24T07:03:40.690Z,97.17
2019-03-24T07:04:40.754Z,97.17
2019-03-24T07:05:40.770Z,97.65
2019-03-24T07:06:40.812Z,97.93
2019-03-24T07:07:40.857Z,97.36
2019-03-24T07:08:40.893Z,97.55
2019-03-24T07:09:40.934Z,97.22
2019-03-24T07:10:40.976Z,97.51
2019-03-24T07:11:41.009Z,97.31
2019-03-24T07:12:41.054Z,97.41
2019-03-24T07:13:41.086Z,97.51
2019-03-24T07:14:41.130Z,97.13
2019-03-24T07:15:41.165Z,97.31
2019-03-24T07:16:41.205Z,97.60
2019-03-24T07:17:41.251Z,97.70
2019-03-24T07:18:41.284Z,97.22
2019-03-24T07:19:41.334Z,97.36
2019-03-24T07:20:41.366Z,97.36
2019-03-24T07:21:41.404Z,97.17
2019-03-24T07:22:41.452Z,97.36
2019-03-24T07:23:41.484Z,97.17
2019-03-24T07:24:41.529Z,97.36
2019-03-24T07:25:41.577Z,97.46
2019-03-24T07:26:41.604Z,97.75
2019-03-24T07:27:41.644Z,97.56
2019-03-24T07:28:41.683Z,97.56
2019-03-24T07:29:41.739Z,97.36
2019-03-24T07:30:41.766Z,97.46
2019-03-24T07:31:41.806Z,97.27
2019-03-24T07:32:41.848Z,96.98
2019-03-24T07:33:41.884Z,96.51
2019-03-24T07:34:41.932Z,96.98
2019-03-24T07:35:41.966Z,96.98
2019-03-24T07:36:42.006Z,96.98
2019-03-24T07:37:42.047Z,97.17
2019-03-24T07:38:42.092Z,97.56
2019-03-24T07:39:42.126Z,97.08
2019-03-24T07:40:42.172Z,97.65
2019-03-24T07:41:42.207Z,97.46
2019-03-24T07:42:42.255Z,96.98
2019-03-24T07:43:42.286Z,97.65
2019-03-24T07:44:42.326Z,97.56
2019-03-24T07:45:42.367Z,96.98
2019-03-24T07:46:42.406Z,97.17
2019-03-24T07:47:42.448Z,97.17
2019-03-24T07:48:42.486Z,97.17
2019-03-24T07:49:42.529Z,97.46
2019-03-24T07:50:42.575Z,97.56
2019-03-24T07:51:42.607Z,97.22
2019-03-24T07:52:42.647Z,96.98
2019-03-24T07:53:42.688Z,96.46
2019-03-24T07:54:42.738Z,96.46
2019-03-24T07:55:42.769Z,96.17
2019-03-24T07:56:42.808Z,96.65
2019-03-24T07:57:42.851Z,96.46
2019-03-24T07:58:42.888Z,96.46
2019-03-24T07:59:42.929Z,96.27
2019-03-24T08:00:42.977Z,96.65
2019-03-24T08:01:43.010Z,96.56
2019-03-24T08:02:50.796Z,96.75
2019-03-24T08:03:43.090Z,96.56
2019-03-24T08:04:43.135Z,96.46
2019-03-24T08:05:43.178Z,96.27
2019-03-24T08:06:43.213Z,97.03
2019-03-24T08:07:43.263Z,96.46
2019-03-24T08:08:44.470Z,96.56
2019-03-24T08:09:43.334Z,96.75
2019-03-24T08:10:43.373Z,96.56
2019-03-24T08:11:43.413Z,96.75
2019-03-24T08:12:43.511Z,96.56
2019-03-24T08:13:53.256Z,96.46
2019-03-24T08:14:43.533Z,96.84
2019-03-24T08:15:43.573Z,96.27
2019-03-24T08:16:43.615Z,96.75
2019-03-24T08:17:43.654Z,96.56
2019-03-24T08:18:43.694Z,96.75
2019-03-24T08:19:43.745Z,96.36
2019-03-24T08:20:43.775Z,95.98
2019-03-24T08:21:43.869Z,96.27
2019-03-24T08:22:43.855Z,96.84
2019-03-24T08:23:43.910Z,96.56
2019-03-24T08:24:43.937Z,96.27
2019-03-24T08:25:43.979Z,96.41
2019-03-24T08:26:44.020Z,95.75
2019-03-24T08:27:44.058Z,95.70
2019-03-24T08:28:44.100Z,96.08
2019-03-24T08:29:44.138Z,96.36
2019-03-24T08:30:44.179Z,95.79
2019-03-24T08:31:44.224Z,95.98
2019-03-24T08:32:44.269Z,95.94
2019-03-24T08:33:44.302Z,95.79
2019-03-24T08:34:44.340Z,95.61
2019-03-24T08:35:44.382Z,95.89
2019-03-24T08:36:44.424Z,96.46
2019-03-24T08:37:44.463Z,96.46
2019-03-24T08:38:44.519Z,95.89
2019-03-24T08:39:44.544Z,95.94
2019-03-24T08:40:44.590Z,95.94
2019-03-24T08:41:44.627Z,95.79
2019-03-24T08:42:44.668Z,95.84
2019-03-24T08:43:44.710Z,95.94
2019-03-24T08:44:44.748Z,95.65
2019-03-24T08:45:44.792Z,95.84
2019-03-24T08:46:47.074Z,95.84
2019-03-24T08:47:44.868Z,95.75
2019-03-24T08:48:44.908Z,94.98
2019-03-24T08:49:44.958Z,95.37
2019-03-24T08:50:44.988Z,95.56
2019-03-24T08:51:45.029Z,95.27
2019-03-24T08:52:45.081Z,95.17
2019-03-24T08:53:45.112Z,95.17
2019-03-24T08:54:45.150Z,94.74
2019-03-24T08:55:45.193Z,94.65
2019-03-24T08:56:45.232Z,94.46
2019-03-24T08:57:45.274Z,94.74
2019-03-24T08:58:45.314Z,94.65
2019-03-24T08:59:45.354Z,94.74
2019-03-24T09:00:45.397Z,94.56
2019-03-24T09:01:45.434Z,94.17
2019-03-24T09:02:45.480Z,94.46
2019-03-24T09:03:45.524Z,94.32
2019-03-24T09:04:45.558Z,94.84
2019-03-24T09:05:45.602Z,94.56
2019-03-24T09:06:45.644Z,94.46
2019-03-24T09:07:45.690Z,94.65
2019-03-24T09:08:45.721Z,93.88
2019-03-24T09:09:45.770Z,94.41
2019-03-24T09:10:45.811Z,93.65
2019-03-24T09:11:45.842Z,93.36
2019-03-24T09:12:45.889Z,93.26
2019-03-24T09:13:45.930Z,93.55
2019-03-24T09:14:45.980Z,93.79
2019-03-24T09:15:46.013Z,93.60
2019-03-24T09:16:46.056Z,92.97
2019-03-24T09:17:46.194Z,92.64
2019-03-24T09:18:52.466Z,93.21
2019-03-24T09:19:46.180Z,92.64
2019-03-24T09:20:46.215Z,92.93
2019-03-24T09:21:46.254Z,93.12
2019-03-24T09:22:46.295Z,92.74
2019-03-24T09:23:46.336Z,92.16
2019-03-24T09:24:46.380Z,92.40
2019-03-24T09:25:46.434Z,92.50
2019-03-24T09:26:46.460Z,91.16
2019-03-24T09:27:46.506Z,91.25
2019-03-24T09:28:46.545Z,91.45
2019-03-24T09:29:46.596Z,91.69
2019-03-24T09:30:46.636Z,91.93
2019-03-24T09:31:46.675Z,91.74
2019-03-24T09:32:46.726Z,91.25
2019-03-24T09:33:46.762Z,91.83
2019-03-24T09:34:46.797Z,91.54
2019-03-24T09:35:46.838Z,92.11
2019-03-24T09:36:46.894Z,92.11
2019-03-24T09:37:46.921Z,91.45
2019-03-24T09:38:46.966Z,91.88
2019-03-24T09:39:47.006Z,92.21
2019-03-24T09:40:47.060Z,92.50
2019-03-24T09:41:47.089Z,92.11
2019-03-24T09:42:47.129Z,92.21
2019-03-24T09:43:47.174Z,91.54
2019-03-24T09:44:47.229Z,90.97
2019-03-24T09:45:47.270Z,91.06
2019-03-24T09:46:47.311Z,91.35
2019-03-24T09:47:47.341Z,91.83
2019-03-24T09:48:47.382Z,91.16
2019-03-24T09:49:47.433Z,90.82
2019-03-24T09:50:47.466Z,90.63
2019-03-24T09:51:47.508Z,90.34
2019-03-24T09:52:47.557Z,90.63
2019-03-24T09:53:47.594Z,89.77
2019-03-24T09:54:47.686Z,89.96
2019-03-24T09:55:47.677Z,90.16
2019-03-24T09:56:47.722Z,90.73
2019-03-24T09:57:48.915Z,90.82
2019-03-24T09:58:47.806Z,89.67
2019-03-24T09:59:47.850Z,89.96
2019-03-24T10:00:47.892Z,89.77
2019-03-24T10:01:47.934Z,89.96
2019-03-24T10:02:47.974Z,89.77
2019-03-24T10:03:48.029Z,89.96
2019-03-24T10:04:48.061Z,89.87
2019-03-24T10:05:48.104Z,89.96
2019-03-24T10:06:48.156Z,89.58
2019-03-24T10:07:48.192Z,89.01
2019-03-24T10:08:48.236Z,89.67
2019-03-24T10:09:48.276Z,89.05
2019-03-24T10:10:48.317Z,89.81
2019-03-24T10:11:49.177Z,89.15
2019-03-24T10:12:48.405Z,88.76
2019-03-24T10:13:48.444Z,88.57
2019-03-24T10:14:48.486Z,88.76
2019-03-24T10:15:48.531Z,89.24
2019-03-24T10:16:48.575Z,88.48
2019-03-24T10:17:48.617Z,88.52
2019-03-24T10:18:48.659Z,88.23
2019-03-24T10:19:48.701Z,88.33
2019-03-24T10:20:48.744Z,87.66
2019-03-24T10:21:48.795Z,87.76
2019-03-24T10:22:48.831Z,87.95
2019-03-24T10:23:48.878Z,87.66
2019-03-24T10:24:48.923Z,87.85
2019-03-24T10:25:48.962Z,88.23
2019-03-24T10:26:49.005Z,87.61
2019-03-24T10:27:49.048Z,87.70
2019-03-24T10:28:49.090Z,87.90
2019-03-24T10:29:49.135Z,86.65
2019-03-24T10:30:49.177Z,86.55
2019-03-24T10:31:49.228Z,86.99
2019-03-24T10:32:49.267Z,87.70
2019-03-24T10:33:49.310Z,87.51
2019-03-24T10:34:49.359Z,87.90
2019-03-24T10:35:49.394Z,88.18
2019-03-24T10:36:49.439Z,86.94
2019-03-24T10:37:49.483Z,87.13
2019-03-24T10:38:49.540Z,86.55
2019-03-24T10:39:49.568Z,86.84
2019-03-24T10:40:49.623Z,86.55
2019-03-24T10:41:49.664Z,86.46
2019-03-24T10:42:49.706Z,86.94
2019-03-24T10:43:49.745Z,86.55
2019-03-24T10:44:49.787Z,87.03
2019-03-24T10:45:49.832Z,86.46
2019-03-24T10:46:49.875Z,86.46
2019-03-24T10:47:49.924Z,86.17
2019-03-24T10:48:49.963Z,86.21
2019-03-24T10:49:50.010Z,85.25
2019-03-24T10:50:50.049Z,85.93
2019-03-24T10:51:50.101Z,86.12
2019-03-24T10:52:50.146Z,84.97
2019-03-24T10:53:50.179Z,83.44
2019-03-24T10:54:50.223Z,82.96
2019-03-24T10:55:50.268Z,83.05
2019-03-24T10:56:50.313Z,83.72
2019-03-24T10:57:50.357Z,83.25
2019-03-24T10:58:50.401Z,84.11
2019-03-24T10:59:50.452Z,84.01
2019-03-24T11:00:50.494Z,83.92
2019-03-24T11:01:50.542Z,84.30
2019-03-24T11:02:50.577Z,84.49
2019-03-24T11:03:50.685Z,84.88
2019-03-24T11:04:50.668Z,84.58
2019-03-24T11:05:50.719Z,84.97
2019-03-24T11:06:50.761Z,84.49
2019-03-24T11:07:50.797Z,83.72
2019-03-24T11:08:50.842Z,83.72
2019-03-24T11:09:50.885Z,83.15
2019-03-24T11:10:50.940Z,83.25
2019-03-24T11:11:50.979Z,83.44
2019-03-24T11:12:51.017Z,83.82
2019-03-24T11:13:51.062Z,83.39
2019-03-24T11:14:51.105Z,84.06
2019-03-24T11:15:51.152Z,84.64
2019-03-24T11:16:51.205Z,84.41
2019-03-24T11:17:51.245Z,85.17
2019-03-24T11:18:51.334Z,85.27
2019-03-24T11:19:51.323Z,85.71
2019-03-24T11:20:51.376Z,86.08
2019-03-24T11:21:51.413Z,86.76
2019-03-24T11:22:51.455Z,86.57
2019-03-24T11:23:51.507Z,87.57
2019-03-24T11:24:51.542Z,88.24
2019-03-24T11:25:51.595Z,88.43
2019-03-24T11:26:51.638Z,87.86
2019-03-24T11:27:51.677Z,88.24
2019-03-24T11:28:51.737Z,88.05
2019-03-24T11:29:51.775Z,88.43
2019-03-24T11:30:51.806Z,88.15
2019-03-24T11:31:51.854Z,88.53
2019-03-24T11:32:51.917Z,88.68
2019-03-24T11:33:51.941Z,89.06
2019-03-24T11:34:51.977Z,89.63
2019-03-24T11:35:52.018Z,90.11
2019-03-24T11:36:52.078Z,89.92
2019-03-24T11:37:52.136Z,89.82
2019-03-24T11:38:52.153Z,89.87
2019-03-24T11:39:52.193Z,90.35
2019-03-24T11:40:52.233Z,91.02
2019-03-24T11:41:52.291Z,90.92
2019-03-24T11:42:52.319Z,90.54
2019-03-24T11:43:52.360Z,90.25
2019-03-24T11:44:52.403Z,91.11
2019-03-24T11:45:52.446Z,91.21
2019-03-24T11:46:52.493Z,91.11
2019-03-24T11:47:52.543Z,91.69
2019-03-24T11:48:52.573Z,91.50
2019-03-24T11:49:52.613Z,91.55
2019-03-24T11:50:52.656Z,91.64
2019-03-24T11:51:52.698Z,91.93
2019-03-24T11:52:52.741Z,91.45
2019-03-24T11:53:52.789Z,92.50
2019-03-24T11:54:52.834Z,91.83
2019-03-24T11:55:52.868Z,92.60
2019-03-24T11:56:52.912Z,92.21
2019-03-24T11:57:52.954Z,92.02
2019-03-24T11:58:53.241Z,92.31
2019-03-24T11:59:53.034Z,92.02
2019-03-24T12:00:53.077Z,92.12
2019-03-24T12:01:53.124Z,92.31
2019-03-24T12:02:53.172Z,92.21
2019-03-24T12:03:53.201Z,91.64
2019-03-24T12:04:53.241Z,91.83
2019-03-24T12:05:53.292Z,91.88
2019-03-24T12:06:53.331Z,91.45
2019-03-24T12:07:53.367Z,91.64
2019-03-24T12:08:53.413Z,91.26
2019-03-24T12:09:53.457Z,91.55
2019-03-24T12:10:53.497Z,91.74
2019-03-24T12:11:53.531Z,91.55
2019-03-24T12:12:53.573Z,91.64
2019-03-24T12:13:53.616Z,91.64
2019-03-24T12:14:53.656Z,91.64
2019-03-24T12:15:53.700Z,91.55
2019-03-24T12:16:53.738Z,91.45
2019-03-24T12:17:53.779Z,91.93
2019-03-24T12:18:53.820Z,91.16
2019-03-24T12:19:56.970Z,91.83
2019-03-24T12:20:53.902Z,92.02
2019-03-24T12:21:53.943Z,91.93
2019-03-24T12:22:53.985Z,92.21
2019-03-24T12:23:54.033Z,92.17
2019-03-24T12:24:54.069Z,91.98
2019-03-24T12:25:54.110Z,92.55
2019-03-24T12:26:54.164Z,92.65
2019-03-24T12:27:54.199Z,92.83
2019-03-24T12:28:54.240Z,92.65
2019-03-24T12:29:54.274Z,92.65
2019-03-24T12:30:54.317Z,92.55
2019-03-24T12:31:54.356Z,92.50
2019-03-24T12:32:54.402Z,92.65
2019-03-24T12:33:54.441Z,92.17
2019-03-24T12:34:54.479Z,92.83
2019-03-24T12:35:54.521Z,93.12
2019-03-24T12:36:54.562Z,93.41
2019-03-24T12:37:54.604Z,94.17
2019-03-24T12:38:54.651Z,93.88
2019-03-24T12:39:54.684Z,94.36
2019-03-24T12:40:54.736Z,94.65
2019-03-24T12:41:54.769Z,94.93
2019-03-24T12:42:54.818Z,94.74
2019-03-24T12:43:54.858Z,94.74
2019-03-24T12:44:54.898Z,94.56
2019-03-24T12:45:54.931Z,94.36
2019-03-24T12:46:54.970Z,94.84
2019-03-24T12:47:55.012Z,94.36
2019-03-24T12:48:55.067Z,94.07
2019-03-24T12:49:55.095Z,94.56
2019-03-24T12:50:55.146Z,94.17
2019-03-24T12:51:55.178Z,94.46
2019-03-24T12:52:55.217Z,94.07